Time;durP1;ratioP1;P1;durP2;ratioP2;P2;SDS_P1;SDS_P2;PMS_P1;PMS_P2;Temp;Humidity;BMP_temperature;BMP_pressure;BME280_temperature;BME280_humidity;BME280_pressure;Samples;Min_cycle;Max_cycle;Signal;HPM_P1;HPM_P2
2021/09/05 00:01:44;;;;;;;;;;;20.80;87.80;;;;;;4375535;32;43036;-78
2021/09/05 00:04:12;;;;;;;;;;;20.80;88.00;;;;;;4375849;32;42659;-77
2021/09/05 00:06:39;;;;;;;;;;;20.80;88.00;;;;;;4375520;32;42578;-78
2021/09/05 00:09:12;;;;;;;;;;;20.80;88.10;;;;;;4375865;32;42755;-77
2021/09/05 00:11:42;;;;;;;;;;;20.70;88.10;;;;;;4375496;32;43494;-77
2021/09/05 00:14:09;;;;;;;;;;;20.70;88.10;;;;;;4362015;32;43964;-77
2021/09/05 00:16:36;;;;;;;;;;;20.70;88.20;;;;;;4375632;32;42527;-78
2021/09/05 00:19:03;;;;;;;;;;;20.70;88.10;;;;;;4362296;32;43287;-78
2021/09/05 00:21:30;;;;;;;;;;;20.70;88.10;;;;;;4362376;32;43966;-78
2021/09/05 00:23:57;;;;;;;;;;;20.70;88.10;;;;;;4362304;32;43978;-78
2021/09/05 00:26:25;;;;;;;;;;;20.70;88.30;;;;;;4375188;32;43656;-78
2021/09/05 00:28:52;;;;;;;;;;;20.70;88.10;;;;;;4361789;32;42632;-77
2021/09/05 00:31:20;;;;;;;;;;;20.60;88.10;;;;;;4375230;32;43764;-77
2021/09/05 00:33:47;;;;;;;;;;;20.60;88.20;;;;;;4361669;32;44380;-77
2021/09/05 00:36:14;;;;;;;;;;;20.60;88.20;;;;;;4375510;32;43955;-78
2021/09/05 00:38:41;;;;;;;;;;;20.60;88.30;;;;;;4375084;32;45464;-77
2021/09/05 00:41:09;;;;;;;;;;;20.60;88.30;;;;;;4375007;32;42843;-78
2021/09/05 00:43:56;;;;;;;;;;;20.60;88.30;;;;;;4375211;32;43300;-77
2021/09/05 00:46:23;;;;;;;;;;;20.60;88.20;;;;;;4362078;32;42609;-78
2021/09/05 00:48:50;;;;;;;;;;;20.60;88.20;;;;;;4362086;32;42809;-78
2021/09/05 00:51:19;;;;;;;;;;;20.50;88.30;;;;;;4375302;32;44810;-77
2021/09/05 00:53:46;;;;;;;;;;;20.50;88.40;;;;;;4375298;32;44236;-77
2021/09/05 00:56:14;;;;;;;;;;;20.50;88.50;;;;;;4361408;32;43485;-78
2021/09/05 00:58:45;;;;;;;;;;;20.50;88.60;;;;;;4375125;32;43753;-78
2021/09/05 01:01:13;;;;;;;;;;;20.50;88.50;;;;;;4361838;32;43799;-78
2021/09/05 01:03:41;;;;;;;;;;;20.50;88.50;;;;;;4361404;32;43050;-78
2021/09/05 01:06:08;;;;;;;;;;;20.50;88.60;;;;;;4375128;32;44265;-78
2021/09/05 01:08:35;;;;;;;;;;;20.50;88.50;;;;;;4374936;32;44004;-78
2021/09/05 01:11:06;;;;;;;;;;;20.50;88.50;;;;;;4375280;32;43172;-78
2021/09/05 01:13:33;;;;;;;;;;;20.40;88.50;;;;;;4361253;32;44097;-78
2021/09/05 01:16:00;;;;;;;;;;;20.40;88.40;;;;;;4375058;32;42938;-77
2021/09/05 01:18:27;;;;;;;;;;;20.40;88.40;;;;;;4361269;32;42829;-77
2021/09/05 01:20:54;;;;;;;;;;;20.40;88.40;;;;;;4361323;32;42701;-77
2021/09/05 01:23:22;;;;;;;;;;;20.40;88.50;;;;;;4374930;32;43786;-78
2021/09/05 01:25:49;;;;;;;;;;;20.40;88.60;;;;;;4361530;32;45009;-78
2021/09/05 01:28:16;;;;;;;;;;;20.40;88.60;;;;;;4361399;32;44892;-78
2021/09/05 01:30:43;;;;;;;;;;;20.40;88.60;;;;;;4374499;32;42629;-79
2021/09/05 01:33:13;;;;;;;;;;;20.40;88.50;;;;;;4375253;32;43938;-78
2021/09/05 01:35:40;;;;;;;;;;;20.30;88.20;;;;;;4361568;32;43171;-78
2021/09/05 01:38:07;;;;;;;;;;;20.30;88.20;;;;;;4375915;32;20000;-78
2021/09/05 01:40:35;;;;;;;;;;;20.30;88.30;;;;;;4374818;32;42891;-78
2021/09/05 01:43:02;;;;;;;;;;;20.30;88.20;;;;;;4360926;32;42256;-78
2021/09/05 01:45:29;;;;;;;;;;;20.30;88.10;;;;;;4361162;32;43045;-77
2021/09/05 01:47:56;;;;;;;;;;;20.30;88.10;;;;;;4374644;32;43746;-78
2021/09/05 01:50:23;;;;;;;;;;;20.20;88.10;;;;;;4374893;32;45837;-78
2021/09/05 01:52:51;;;;;;;;;;;20.20;88.20;;;;;;4361268;32;43227;-78
2021/09/05 01:55:18;;;;;;;;;;;20.20;88.10;;;;;;4360854;32;42607;-78
2021/09/05 01:57:45;;;;;;;;;;;20.20;88.00;;;;;;4374831;32;44179;-78
2021/09/05 02:00:15;;;;;;;;;;;20.20;88.10;;;;;;4361460;32;43934;-78
2021/09/05 02:02:42;;;;;;;;;;;20.10;88.20;;;;;;4358542;33;44021;-77
2021/09/05 02:05:13;;;;;;;;;;;20.10;88.20;;;;;;4358237;33;44109;-78
2021/09/05 02:07:40;;;;;;;;;;;20.10;88.20;;;;;;4359802;33;43040;-78
2021/09/05 02:10:07;;;;;;;;;;;20.10;88.40;;;;;;4359816;33;43741;-79
2021/09/05 02:12:39;;;;;;;;;;;20.10;88.40;;;;;;4358376;33;44955;-78
2021/09/05 02:15:06;;;;;;;;;;;20.00;88.40;;;;;;4358304;33;45867;-77
2021/09/05 02:17:34;;;;;;;;;;;20.10;88.60;;;;;;4359281;32;44165;-78
2021/09/05 02:20:02;;;;;;;;;;;20.00;88.40;;;;;;4361028;32;43276;-78
2021/09/05 02:22:29;;;;;;;;;;;20.00;88.60;;;;;;4361436;32;42740;-80
2021/09/05 02:24:56;;;;;;;;;;;20.00;88.40;;;;;;4361494;32;43857;-78
2021/09/05 02:27:23;;;;;;;;;;;20.00;88.50;;;;;;4361428;32;43192;-78
2021/09/05 02:29:50;;;;;;;;;;;20.00;88.40;;;;;;4361145;32;44203;-77
2021/09/05 02:32:18;;;;;;;;;;;19.90;88.30;;;;;;4362040;32;43995;-78
2021/09/05 02:34:48;;;;;;;;;;;20.00;88.30;;;;;;4360825;32;43492;-78
2021/09/05 02:37:15;;;;;;;;;;;20.00;88.40;;;;;;4362383;32;43860;-78
2021/09/05 02:39:42;;;;;;;;;;;19.90;88.50;;;;;;4361145;32;43525;-78
2021/09/05 02:42:09;;;;;;;;;;;19.90;88.60;;;;;;4362466;32;43965;-78
2021/09/05 02:44:37;;;;;;;;;;;19.90;88.60;;;;;;4362413;32;43961;-79
2021/09/05 02:47:04;;;;;;;;;;;19.90;88.70;;;;;;4360763;32;42020;-78
2021/09/05 02:49:31;;;;;;;;;;;19.90;88.80;;;;;;4360586;32;42949;-78
2021/09/05 02:51:58;;;;;;;;;;;19.90;88.60;;;;;;4360952;32;43850;-78
2021/09/05 02:54:25;;;;;;;;;;;19.90;88.70;;;;;;4361536;32;43370;-78
2021/09/05 02:56:52;;;;;;;;;;;19.80;88.80;;;;;;4362047;32;43180;-78
2021/09/05 02:59:19;;;;;;;;;;;19.80;88.80;;;;;;4361673;32;44234;-78
2021/09/05 03:01:46;;;;;;;;;;;19.90;88.90;;;;;;4360383;32;44794;-78
2021/09/05 03:04:17;;;;;;;;;;;19.80;88.80;;;;;;4360862;32;45143;-78
2021/09/05 03:06:44;;;;;;;;;;;19.80;88.80;;;;;;4360363;32;44223;-79
2021/09/05 03:09:11;;;;;;;;;;;19.80;88.80;;;;;;4361535;32;42884;-79
2021/09/05 03:11:38;;;;;;;;;;;19.80;88.80;;;;;;4361887;32;43259;-78
2021/09/05 03:14:05;;;;;;;;;;;19.80;88.90;;;;;;4361773;32;43475;-78
2021/09/05 03:16:32;;;;;;;;;;;19.80;88.90;;;;;;4361825;32;44311;-78
2021/09/05 03:19:00;;;;;;;;;;;19.80;89.00;;;;;;4361267;32;42666;-78
2021/09/05 03:21:27;;;;;;;;;;;19.80;89.00;;;;;;4361646;32;43817;-78
2021/09/05 03:23:54;;;;;;;;;;;19.80;89.00;;;;;;4360673;32;42877;-78
2021/09/05 03:26:21;;;;;;;;;;;19.80;89.00;;;;;;4361347;32;43773;-78
2021/09/05 03:28:48;;;;;;;;;;;19.70;89.00;;;;;;4361415;32;43890;-78
2021/09/05 03:31:15;;;;;;;;;;;19.70;89.00;;;;;;4360532;32;43476;-79
2021/09/05 03:33:42;;;;;;;;;;;19.70;89.00;;;;;;4361181;32;43085;-78
2021/09/05 03:36:09;;;;;;;;;;;19.70;89.00;;;;;;4360933;32;43287;-78
2021/09/05 03:38:36;;;;;;;;;;;19.70;89.10;;;;;;4360056;32;43187;-78
2021/09/05 03:41:04;;;;;;;;;;;19.70;89.00;;;;;;4361197;32;42641;-78
2021/09/05 03:43:31;;;;;;;;;;;19.70;89.10;;;;;;4360202;32;43551;-78
2021/09/05 03:45:58;;;;;;;;;;;19.70;89.10;;;;;;4360893;32;45110;-78
2021/09/05 03:48:28;;;;;;;;;;;19.70;89.00;;;;;;4360234;32;43951;-79
2021/09/05 03:50:56;;;;;;;;;;;19.60;88.90;;;;;;4360858;32;43865;-78
2021/09/05 03:53:23;;;;;;;;;;;19.70;89.00;;;;;;4360715;32;43505;-79
2021/09/05 03:55:50;;;;;;;;;;;19.60;88.90;;;;;;4359965;32;43010;-78
2021/09/05 03:58:17;;;;;;;;;;;19.60;88.90;;;;;;4361101;32;43786;-78
2021/09/05 04:00:47;;;;;;;;;;;19.60;88.90;;;;;;4359971;32;44632;-78
2021/09/05 04:03:14;;;;;;;;;;;19.60;89.10;;;;;;4372174;32;43520;-78
2021/09/05 04:05:42;;;;;;;;;;;19.60;89.10;;;;;;4375550;32;44926;-79
2021/09/05 04:08:14;;;;;;;;;;;19.60;89.10;;;;;;4375436;32;42674;-78
2021/09/05 04:10:42;;;;;;;;;;;19.50;89.10;;;;;;4362804;32;43234;-78
2021/09/05 04:13:14;;;;;;;;;;;19.50;89.10;;;;;;4375280;32;44354;-78
2021/09/05 04:15:44;;;;;;;;;;;19.50;89.20;;;;;;4375555;32;44029;-78
2021/09/05 04:18:11;;;;;;;;;;;19.50;89.20;;;;;;4362865;32;43993;-79
2021/09/05 04:20:38;;;;;;;;;;;19.50;89.20;;;;;;4375420;32;43746;-78
2021/09/05 04:23:06;;;;;;;;;;;19.50;89.30;;;;;;4361902;32;44353;-78
2021/09/05 04:25:33;;;;;;;;;;;19.50;89.40;;;;;;4375241;32;44322;-78
2021/09/05 04:28:00;;;;;;;;;;;19.50;89.50;;;;;;4375237;32;41960;-78
2021/09/05 04:30:27;;;;;;;;;;;19.40;89.40;;;;;;4375401;32;44266;-78
2021/09/05 04:32:57;;;;;;;;;;;19.50;89.50;;;;;;4375269;32;42792;-78
2021/09/05 04:35:24;;;;;;;;;;;19.50;89.60;;;;;;4375087;32;43343;-78
2021/09/05 04:37:51;;;;;;;;;;;19.40;89.60;;;;;;4375176;32;43909;-78
2021/09/05 04:40:18;;;;;;;;;;;19.40;89.50;;;;;;4361936;32;43942;-77
2021/09/05 04:42:45;;;;;;;;;;;19.50;89.60;;;;;;4361768;32;43952;-79
2021/09/05 04:45:12;;;;;;;;;;;19.40;89.60;;;;;;4375099;32;43487;-78
2021/09/05 04:47:40;;;;;;;;;;;19.40;89.60;;;;;;4374965;32;43890;-78
2021/09/05 04:50:10;;;;;;;;;;;19.40;89.60;;;;;;4375394;32;43950;-78
2021/09/05 04:52:37;;;;;;;;;;;19.40;89.70;;;;;;4362072;32;43278;-78
2021/09/05 04:55:05;;;;;;;;;;;19.40;89.50;;;;;;4361540;32;42886;-78
2021/09/05 04:57:35;;;;;;;;;;;19.40;89.50;;;;;;4361754;32;43938;-78
2021/09/05 05:00:02;;;;;;;;;;;19.40;89.70;;;;;;4361772;32;43076;-78
2021/09/05 05:02:32;;;;;;;;;;;19.30;89.80;;;;;;4374885;32;44018;-78
2021/09/05 05:05:00;;;;;;;;;;;19.30;89.80;;;;;;4361925;32;42994;-78
2021/09/05 05:07:28;;;;;;;;;;;19.30;89.90;;;;;;4361407;32;43909;-79
2021/09/05 05:09:58;;;;;;;;;;;19.30;89.90;;;;;;4361529;32;43630;-78
2021/09/05 05:12:28;;;;;;;;;;;19.30;89.90;;;;;;4374799;32;43223;-77
2021/09/05 05:14:55;;;;;;;;;;;19.30;89.70;;;;;;4374767;32;44116;-78
2021/09/05 05:17:22;;;;;;;;;;;19.30;89.60;;;;;;4375063;32;44194;-78
2021/09/05 05:19:49;;;;;;;;;;;19.30;89.70;;;;;;4361145;32;44994;-78
2021/09/05 05:22:17;;;;;;;;;;;19.30;89.70;;;;;;4374999;32;44062;-78
2021/09/05 05:24:47;;;;;;;;;;;19.20;90.20;;;;;;4361449;32;44479;-78
2021/09/05 05:27:14;;;;;;;;;;;19.20;89.90;;;;;;4374690;32;43058;-78
2021/09/05 05:29:41;;;;;;;;;;;19.20;89.90;;;;;;4361733;32;43887;-79
2021/09/05 05:32:09;;;;;;;;;;;19.20;90.30;;;;;;4375226;32;44092;-79
2021/09/05 05:34:38;;;;;;;;;;;19.10;90.00;;;;;;4361581;32;42959;-78
2021/09/05 05:37:06;;;;;;;;;;;19.10;90.00;;;;;;4374410;32;42957;-79
2021/09/05 05:39:36;;;;;;;;;;;19.10;90.00;;;;;;4374899;32;44112;-78
2021/09/05 05:42:06;;;;;;;;;;;19.10;90.00;;;;;;4374531;32;45019;-78
2021/09/05 05:44:33;;;;;;;;;;;19.10;90.10;;;;;;4374630;32;43045;-78
2021/09/05 05:47:00;;;;;;;;;;;19.10;90.10;;;;;;4361441;32;43355;-78
2021/09/05 05:49:27;;;;;;;;;;;19.10;90.10;;;;;;4374758;32;43250;-78
2021/09/05 05:51:54;;;;;;;;;;;19.10;90.20;;;;;;4374947;32;44697;-78
2021/09/05 05:54:21;;;;;;;;;;;19.10;90.20;;;;;;4362825;32;43902;-79
2021/09/05 05:56:50;;;;;;;;;;;19.10;90.20;;;;;;4377576;32;42687;-78
2021/09/05 05:59:17;;;;;;;;;;;19.10;90.30;;;;;;4377321;32;43268;-78
2021/09/05 06:01:50;;;;;;;;;;;19.10;90.30;;;;;;4377493;32;42541;-79
2021/09/05 06:04:18;;;;;;;;;;;19.10;90.30;;;;;;4364397;32;43949;-80
2021/09/05 06:06:45;;;;;;;;;;;19.10;90.30;;;;;;4377311;32;42292;-79
2021/09/05 06:09:15;;;;;;;;;;;19.10;90.30;;;;;;4377216;32;43801;-79
2021/09/05 06:11:42;;;;;;;;;;;19.10;90.30;;;;;;4363990;32;42819;-79
2021/09/05 06:14:12;;;;;;;;;;;19.10;90.40;;;;;;4364267;32;43182;-79
2021/09/05 06:16:39;;;;;;;;;;;19.10;90.40;;;;;;4377064;32;43845;-79
2021/09/05 06:19:09;;;;;;;;;;;19.10;90.50;;;;;;4377570;32;44170;-80
2021/09/05 06:21:36;;;;;;;;;;;19.10;90.50;;;;;;4377232;32;42879;-78
2021/09/05 06:24:03;;;;;;;;;;;19.10;90.50;;;;;;4377130;32;43045;-79
2021/09/05 06:26:30;;;;;;;;;;;19.10;90.60;;;;;;4376964;32;42878;-80
2021/09/05 06:28:57;;;;;;;;;;;19.10;90.60;;;;;;4363592;32;43284;-78
2021/09/05 06:31:24;;;;;;;;;;;19.10;90.60;;;;;;4376870;32;44191;-79
2021/09/05 06:33:52;;;;;;;;;;;19.10;90.60;;;;;;4363439;32;43869;-79
2021/09/05 06:36:22;;;;;;;;;;;19.10;90.70;;;;;;4377046;32;43399;-79
2021/09/05 06:38:49;;;;;;;;;;;19.10;90.80;;;;;;4376955;32;44278;-79
2021/09/05 06:41:16;;;;;;;;;;;19.10;90.80;;;;;;4376909;32;42316;-79
2021/09/05 06:43:43;;;;;;;;;;;19.00;90.80;;;;;;4363521;32;43403;-79
2021/09/05 06:46:10;;;;;;;;;;;19.00;90.80;;;;;;4377063;32;42789;-79
2021/09/05 06:48:43;;;;;;;;;;;19.10;90.90;;;;;;4363538;32;42579;-79
2021/09/05 06:51:10;;;;;;;;;;;19.10;91.00;;;;;;4376770;32;44567;-79
2021/09/05 06:53:38;;;;;;;;;;;19.10;91.40;;;;;;4377212;32;42851;-79
2021/09/05 06:56:08;;;;;;;;;;;19.10;91.10;;;;;;4376553;32;42299;-79
2021/09/05 06:58:35;;;;;;;;;;;19.10;91.20;;;;;;4376879;32;43232;-79
2021/09/05 07:01:02;;;;;;;;;;;19.10;91.20;;;;;;4376428;32;44348;-79
2021/09/05 07:03:30;;;;;;;;;;;19.10;91.30;;;;;;4363073;32;43315;-79
2021/09/05 07:05:57;;;;;;;;;;;19.10;91.30;;;;;;4363418;32;44196;-79
2021/09/05 07:08:24;;;;;;;;;;;19.10;91.40;;;;;;4376907;32;43965;-78
2021/09/05 07:10:57;;;;;;;;;;;19.00;91.40;;;;;;4377709;32;20001;-78
2021/09/05 07:13:24;;;;;;;;;;;19.10;91.50;;;;;;4376792;32;44824;-79
2021/09/05 07:15:51;;;;;;;;;;;19.10;91.50;;;;;;4363317;32;43373;-78
2021/09/05 07:18:27;;;;;;;;;;;19.10;91.60;;;;;;4363791;32;43339;-78
2021/09/05 07:20:54;;;;;;;;;;;19.10;91.60;;;;;;4363185;32;44246;-78
2021/09/05 07:23:21;;;;;;;;;;;19.10;91.70;;;;;;4362686;32;44056;-78
2021/09/05 07:25:48;;;;;;;;;;;19.10;91.70;;;;;;4376235;32;43777;-79
2021/09/05 07:28:17;;;;;;;;;;;19.10;91.80;;;;;;4362666;32;43014;-78
2021/09/05 07:30:45;;;;;;;;;;;19.10;91.80;;;;;;4362779;32;42704;-79
2021/09/05 07:33:14;;;;;;;;;;;19.20;91.80;;;;;;4376217;32;43212;-78
2021/09/05 07:35:41;;;;;;;;;;;19.10;91.80;;;;;;4362886;32;46017;-78
2021/09/05 07:38:09;;;;;;;;;;;19.20;91.90;;;;;;4362844;32;42762;-78
2021/09/05 07:40:36;;;;;;;;;;;19.20;91.90;;;;;;4376321;32;43877;-78
2021/09/05 07:43:04;;;;;;;;;;;19.20;91.90;;;;;;4375902;32;43853;-78
2021/09/05 07:45:31;;;;;;;;;;;19.20;91.90;;;;;;4375829;32;44258;-78
2021/09/05 07:47:58;;;;;;;;;;;19.20;92.00;;;;;;4362422;32;43736;-77
2021/09/05 07:50:26;;;;;;;;;;;19.20;92.00;;;;;;4376102;32;43897;-78
2021/09/05 07:52:53;;;;;;;;;;;19.20;92.00;;;;;;4376221;32;44093;-78
2021/09/05 07:55:20;;;;;;;;;;;19.20;92.00;;;;;;4376179;32;42720;-78
2021/09/05 07:57:47;;;;;;;;;;;19.30;92.00;;;;;;4362690;32;44239;-78
2021/09/05 08:00:14;;;;;;;;;;;19.20;92.00;;;;;;4376140;32;43960;-78
2021/09/05 08:02:41;;;;;;;;;;;19.20;92.00;;;;;;4362038;32;42664;-78
2021/09/05 08:05:09;;;;;;;;;;;19.30;92.10;;;;;;4375850;32;44231;-78
2021/09/05 08:07:36;;;;;;;;;;;19.30;92.10;;;;;;4362590;32;44324;-78
2021/09/05 08:10:05;;;;;;;;;;;19.30;92.10;;;;;;4375899;32;42678;-78
2021/09/05 08:12:32;;;;;;;;;;;19.30;92.10;;;;;;4362754;32;44108;-78
2021/09/05 08:15:00;;;;;;;;;;;19.30;92.10;;;;;;4375628;32;43543;-78
2021/09/05 08:17:27;;;;;;;;;;;19.30;92.10;;;;;;4361280;32;44179;-78
2021/09/05 08:19:54;;;;;;;;;;;19.30;92.20;;;;;;4375516;32;43164;-78
2021/09/05 08:22:24;;;;;;;;;;;19.30;92.20;;;;;;4361781;32;44163;-78
2021/09/05 08:24:51;;;;;;;;;;;19.40;92.30;;;;;;4361855;32;44286;-78
2021/09/05 08:27:18;;;;;;;;;;;19.40;92.30;;;;;;4375406;32;43843;-77
2021/09/05 08:29:45;;;;;;;;;;;19.40;92.30;;;;;;4375163;32;43850;-78
2021/09/05 08:32:15;;;;;;;;;;;19.40;92.30;;;;;;4362424;32;44238;-78
2021/09/05 08:34:42;;;;;;;;;;;19.40;92.30;;;;;;4375518;32;42805;-78
2021/09/05 08:37:09;;;;;;;;;;;19.40;92.40;;;;;;4361623;32;44599;-78
2021/09/05 08:39:36;;;;;;;;;;;19.40;92.40;;;;;;4375108;32;43119;-78
2021/09/05 08:42:08;;;;;;;;;;;19.50;92.40;;;;;;4376021;32;19997;-78
2021/09/05 08:44:35;;;;;;;;;;;19.40;92.40;;;;;;4375584;32;44046;-78
2021/09/05 08:47:02;;;;;;;;;;;19.50;92.40;;;;;;4361903;32;42937;-77
2021/09/05 08:49:33;;;;;;;;;;;19.50;92.40;;;;;;4361995;32;43265;-79
2021/09/05 08:52:00;;;;;;;;;;;19.50;92.50;;;;;;4361692;32;42323;-78
2021/09/05 08:54:31;;;;;;;;;;;19.50;92.50;;;;;;4361663;32;44174;-77
2021/09/05 08:57:00;;;;;;;;;;;19.50;92.60;;;;;;4361319;32;45136;-78
2021/09/05 08:59:27;;;;;;;;;;;19.50;92.60;;;;;;4361441;32;43969;-78
2021/09/05 09:01:55;;;;;;;;;;;19.50;92.60;;;;;;4374762;32;43031;-78
2021/09/05 09:04:23;;;;;;;;;;;19.50;92.60;;;;;;4375264;32;44234;-78
2021/09/05 09:06:50;;;;;;;;;;;19.50;92.60;;;;;;4361765;32;44648;-77
2021/09/05 09:09:17;;;;;;;;;;;19.50;92.60;;;;;;4361309;32;44116;-78
2021/09/05 09:11:47;;;;;;;;;;;19.50;92.60;;;;;;4375087;32;44226;-77
2021/09/05 09:14:14;;;;;;;;;;;19.60;92.70;;;;;;4374736;32;43084;-78
2021/09/05 09:16:44;;;;;;;;;;;19.50;92.70;;;;;;4375097;32;43467;-78
2021/09/05 09:19:22;;;;;;;;;;;19.60;92.70;;;;;;4361126;32;44807;-78
2021/09/05 09:21:49;;;;;;;;;;;19.60;92.70;;;;;;4375147;32;43013;-78
2021/09/05 09:24:19;;;;;;;;;;;19.60;92.70;;;;;;4361353;32;43760;-78
2021/09/05 09:26:59;;;;;;;;;;;19.60;92.80;;;;;;4361126;32;44426;-78
2021/09/05 09:29:29;;;;;;;;;;;19.60;92.80;;;;;;4375171;32;45302;-77
2021/09/05 09:32:01;;;;;;;;;;;19.60;92.80;;;;;;4374491;32;43482;-78
2021/09/05 09:34:30;;;;;;;;;;;19.60;92.80;;;;;;4361194;32;43617;-78
2021/09/05 09:36:59;;;;;;;;;;;19.60;92.80;;;;;;4374905;32;44475;-77
2021/09/05 09:39:27;;;;;;;;;;;19.70;92.80;;;;;;4374904;32;43490;-77
2021/09/05 09:41:55;;;;;;;;;;;19.70;92.80;;;;;;4374842;32;43855;-78
2021/09/05 09:44:26;;;;;;;;;;;19.70;92.80;;;;;;4374500;32;42796;-77
2021/09/05 09:47:09;;;;;;;;;;;19.70;92.80;;;;;;4361068;32;43286;-77
2021/09/05 09:49:48;;;;;;;;;;;19.70;92.80;;;;;;4361537;32;43497;-78
2021/09/05 09:52:17;;;;;;;;;;;19.70;92.80;;;;;;4374810;32;43913;-78
2021/09/05 09:54:45;;;;;;;;;;;19.70;92.80;;;;;;4361855;32;44276;-77
2021/09/05 09:57:15;;;;;;;;;;;19.70;92.80;;;;;;4374168;32;44016;-77
2021/09/05 09:59:42;;;;;;;;;;;19.80;92.90;;;;;;4360895;32;43684;-77
2021/09/05 10:02:17;;;;;;;;;;;19.80;92.80;;;;;;4360922;32;44177;-77
2021/09/05 10:04:50;;;;;;;;;;;19.80;92.90;;;;;;4361355;32;43937;-77
2021/09/05 10:07:20;;;;;;;;;;;19.80;92.90;;;;;;4361573;32;43512;-77
2021/09/05 10:09:48;;;;;;;;;;;19.80;92.90;;;;;;4374514;32;42646;-77
2021/09/05 10:12:16;;;;;;;;;;;19.80;92.90;;;;;;4374601;32;43880;-77
2021/09/05 10:14:51;;;;;;;;;;;19.80;92.90;;;;;;4374212;32;43409;-77
2021/09/05 10:17:22;;;;;;;;;;;19.90;92.90;;;;;;4374564;32;43362;-77
2021/09/05 10:19:49;;;;;;;;;;;19.90;92.90;;;;;;4374724;32;43430;-77
2021/09/05 10:22:22;;;;;;;;;;;19.90;92.90;;;;;;4374764;32;43334;-77
2021/09/05 10:24:53;;;;;;;;;;;19.90;92.90;;;;;;4374482;32;42651;-77
2021/09/05 10:27:31;;;;;;;;;;;19.90;92.90;;;;;;4360805;32;43183;-76
2021/09/05 10:30:08;;;;;;;;;;;20.00;92.90;;;;;;4361204;32;43986;-76
2021/09/05 10:32:55;;;;;;;;;;;20.00;92.90;;;;;;4360776;32;44210;-76
2021/09/05 10:35:25;;;;;;;;;;;20.00;92.90;;;;;;4361322;32;43744;-77
2021/09/05 10:38:07;;;;;;;;;;;20.00;92.90;;;;;;4360999;32;43688;-76
2021/09/05 10:40:44;;;;;;;;;;;20.10;92.90;;;;;;4362762;32;43885;-76
2021/09/05 10:43:15;;;;;;;;;;;20.10;92.90;;;;;;4363294;32;43891;-77
2021/09/05 10:45:44;;;;;;;;;;;20.10;92.90;;;;;;4376747;32;42481;-76
2021/09/05 10:48:31;;;;;;;;;;;20.10;92.90;;;;;;4363635;32;43447;-77
2021/09/05 10:51:09;;;;;;;;;;;20.20;92.90;;;;;;4377082;32;44219;-77
2021/09/05 10:53:37;;;;;;;;;;;20.10;92.90;;;;;;4363879;32;43750;-77
2021/09/05 10:56:09;;;;;;;;;;;20.20;92.90;;;;;;4363709;32;43247;-76
2021/09/05 10:58:47;;;;;;;;;;;20.20;92.90;;;;;;4363572;32;43947;-77
2021/09/05 11:01:21;;;;;;;;;;;20.20;92.90;;;;;;4376844;32;43636;-76
2021/09/05 11:04:07;;;;;;;;;;;20.30;92.90;;;;;;4376550;32;44219;-76
2021/09/05 11:06:35;;;;;;;;;;;20.30;92.90;;;;;;4377066;32;44235;-76
2021/09/05 11:09:17;;;;;;;;;;;20.30;92.90;;;;;;4376783;32;42674;-76
2021/09/05 11:11:57;;;;;;;;;;;20.30;92.90;;;;;;4363361;32;42989;-76
2021/09/05 11:14:37;;;;;;;;;;;20.30;92.90;;;;;;4376440;32;42859;-76
2021/09/05 11:17:07;;;;;;;;;;;20.30;92.90;;;;;;4376168;32;43959;-76
2021/09/05 11:19:57;;;;;;;;;;;20.40;92.90;;;;;;4376219;32;45769;-76
2021/09/05 11:22:37;;;;;;;;;;;20.40;92.90;;;;;;4352278;32;43209;-76
2021/09/05 11:25:09;;;;;;;;;;;20.40;92.90;;;;;;4376500;32;43678;-76
2021/09/05 11:27:38;;;;;;;;;;;20.50;93.00;;;;;;4363185;32;43021;-76
2021/09/05 11:30:08;;;;;;;;;;;20.50;93.00;;;;;;4363038;32;43413;-76
2021/09/05 11:32:38;;;;;;;;;;;20.50;93.00;;;;;;4376426;32;42994;-76
2021/09/05 11:35:06;;;;;;;;;;;20.50;92.90;;;;;;4376018;32;43444;-76
2021/09/05 11:37:35;;;;;;;;;;;20.60;93.00;;;;;;4376489;32;43851;-76
2021/09/05 11:40:03;;;;;;;;;;;20.60;93.00;;;;;;4376137;32;44223;-76
2021/09/05 11:42:31;;;;;;;;;;;20.60;93.00;;;;;;4362821;32;42651;-76
2021/09/05 11:45:03;;;;;;;;;;;20.60;92.90;;;;;;4375844;32;42690;-77
2021/09/05 11:47:30;;;;;;;;;;;20.70;93.00;;;;;;4376373;32;45485;-77
2021/09/05 11:50:02;;;;;;;;;;;20.70;92.90;;;;;;4362555;32;42557;-77
2021/09/05 11:52:30;;;;;;;;;;;20.70;93.00;;;;;;4376385;32;44234;-76
2021/09/05 11:54:58;;;;;;;;;;;20.70;92.90;;;;;;4362246;32;44126;-76
2021/09/05 11:57:28;;;;;;;;;;;20.80;93.00;;;;;;4375646;32;43570;-75
2021/09/05 11:59:57;;;;;;;;;;;20.80;93.00;;;;;;4376072;32;43531;-76
2021/09/05 12:02:28;;;;;;;;;;;20.90;93.00;;;;;;4375902;32;44215;-76
2021/09/05 12:04:55;;;;;;;;;;;20.80;92.90;;;;;;4375606;32;42573;-76
2021/09/05 12:07:23;;;;;;;;;;;20.90;93.00;;;;;;4375539;32;42730;-76
2021/09/05 12:10:07;;;;;;;;;;;20.90;92.90;;;;;;4375849;32;44724;-78
2021/09/05 12:12:35;;;;;;;;;;;21.00;93.00;;;;;;4362407;32;43195;-77
2021/09/05 12:15:13;;;;;;;;;;;21.00;92.90;;;;;;4375601;32;43001;-76
2021/09/05 12:17:44;;;;;;;;;;;21.00;92.90;;;;;;4362504;32;43859;-76
2021/09/05 12:20:12;;;;;;;;;;;21.10;92.90;;;;;;4362510;32;43246;-76
2021/09/05 12:22:52;;;;;;;;;;;21.10;92.90;;;;;;4362265;32;42624;-76
2021/09/05 12:25:21;;;;;;;;;;;21.10;92.90;;;;;;4375950;32;43208;-76
2021/09/05 12:27:55;;;;;;;;;;;21.10;92.90;;;;;;4361805;32;43631;-76
2021/09/05 12:30:25;;;;;;;;;;;21.20;92.90;;;;;;4375667;32;42163;-76
2021/09/05 12:33:02;;;;;;;;;;;21.20;92.90;;;;;;4375248;32;42833;-76
2021/09/05 12:35:29;;;;;;;;;;;21.30;93.10;;;;;;4375410;32;43838;-76
2021/09/05 12:38:06;;;;;;;;;;;21.30;92.90;;;;;;4362330;32;43154;-76
2021/09/05 12:40:34;;;;;;;;;;;21.30;92.90;;;;;;4375044;32;43655;-76
2021/09/05 12:43:03;;;;;;;;;;;21.40;92.90;;;;;;4375571;32;43523;-76
2021/09/05 12:45:33;;;;;;;;;;;21.40;92.90;;;;;;4361684;32;44029;-76
2021/09/05 12:48:10;;;;;;;;;;;21.40;92.90;;;;;;4376346;32;20009;-76
2021/09/05 12:50:37;;;;;;;;;;;21.50;92.90;;;;;;4375558;32;43242;-76
2021/09/05 12:53:11;;;;;;;;;;;21.50;92.90;;;;;;4375200;32;43387;-76
2021/09/05 12:55:38;;;;;;;;;;;21.50;92.90;;;;;;4375261;32;42637;-75
2021/09/05 12:58:11;;;;;;;;;;;21.60;92.90;;;;;;4375015;32;42192;-75
2021/09/05 13:00:38;;;;;;;;;;;21.60;92.90;;;;;;4375376;32;42687;-76
2021/09/05 13:03:06;;;;;;;;;;;21.70;92.90;;;;;;4361135;32;43468;-76
2021/09/05 13:05:34;;;;;;;;;;;21.70;92.90;;;;;;4361536;32;43180;-76
2021/09/05 13:08:02;;;;;;;;;;;21.80;93.00;;;;;;4375134;32;43222;-76
2021/09/05 13:10:32;;;;;;;;;;;21.80;92.90;;;;;;4374750;32;43005;-76
2021/09/05 13:12:59;;;;;;;;;;;21.80;92.90;;;;;;4361725;32;43697;-76
2021/09/05 13:15:27;;;;;;;;;;;21.90;92.90;;;;;;4361777;32;43887;-76
2021/09/05 13:17:57;;;;;;;;;;;21.90;92.90;;;;;;4361361;32;42870;-76
2021/09/05 13:20:26;;;;;;;;;;;22.00;93.30;;;;;;4361306;32;44264;-76
2021/09/05 13:22:53;;;;;;;;;;;22.00;92.90;;;;;;4374898;32;43688;-76
2021/09/05 13:25:21;;;;;;;;;;;22.00;92.90;;;;;;4374952;32;42748;-75
2021/09/05 13:27:49;;;;;;;;;;;22.10;92.90;;;;;;4361017;32;42747;-76
2021/09/05 13:30:16;;;;;;;;;;;22.10;92.90;;;;;;4361193;32;42536;-76
2021/09/05 13:32:43;;;;;;;;;;;22.20;92.90;;;;;;4374669;32;42906;-76
2021/09/05 13:35:13;;;;;;;;;;;22.20;92.90;;;;;;4374821;32;42272;-76
2021/09/05 13:37:40;;;;;;;;;;;22.30;92.90;;;;;;4361397;32;42925;-76
2021/09/05 13:40:07;;;;;;;;;;;22.30;92.80;;;;;;4374440;32;43837;-76
2021/09/05 13:42:35;;;;;;;;;;;22.30;92.80;;;;;;4374536;32;42868;-75
2021/09/05 13:45:02;;;;;;;;;;;22.30;92.80;;;;;;4374468;32;42721;-76
2021/09/05 13:47:30;;;;;;;;;;;22.40;92.70;;;;;;4374410;32;43458;-76
2021/09/05 13:49:58;;;;;;;;;;;22.40;92.70;;;;;;4374476;32;43913;-76
2021/09/05 13:52:27;;;;;;;;;;;22.50;92.70;;;;;;4374904;32;44222;-76
2021/09/05 13:54:55;;;;;;;;;;;22.50;93.00;;;;;;4374430;32;43477;-76
2021/09/05 13:57:22;;;;;;;;;;;22.50;92.60;;;;;;4374649;32;43721;-76
2021/09/05 13:59:49;;;;;;;;;;;22.60;92.60;;;;;;4374299;32;42910;-76
2021/09/05 14:02:19;;;;;;;;;;;22.60;92.50;;;;;;4374213;32;42899;-76
2021/09/05 14:04:46;;;;;;;;;;;22.70;92.50;;;;;;4361059;32;42045;-76
2021/09/05 14:07:13;;;;;;;;;;;22.70;92.40;;;;;;4374260;32;42619;-77
2021/09/05 14:09:46;;;;;;;;;;;22.80;92.40;;;;;;4360999;32;44215;-76
2021/09/05 14:12:13;;;;;;;;;;;22.80;92.40;;;;;;4374343;32;42655;-76
2021/09/05 14:14:41;;;;;;;;;;;22.80;92.30;;;;;;4375366;32;43767;-76
2021/09/05 14:17:11;;;;;;;;;;;22.90;92.30;;;;;;4377649;32;43682;-76
2021/09/05 14:19:39;;;;;;;;;;;22.90;92.20;;;;;;4363678;32;44788;-78
2021/09/05 14:22:10;;;;;;;;;;;23.00;92.20;;;;;;4363601;32;43631;-75
2021/09/05 14:24:37;;;;;;;;;;;23.00;92.10;;;;;;4377544;32;42494;-75
2021/09/05 14:27:11;;;;;;;;;;;23.00;92.20;;;;;;4363868;32;44127;-76